createdAt,value
2023-02-12T00:00:24.940Z,1.82
2023-02-12T00:02:52.795Z,1.75
2023-02-12T00:05:20.581Z,1.87
2023-02-12T00:07:48.673Z,1.98
2023-02-12T00:10:19.495Z,1.69
2023-02-12T00:12:47.392Z,1.81
2023-02-12T00:15:15.142Z,1.92
2023-02-12T00:17:42.892Z,1.91
2023-02-12T00:20:13.564Z,1.71
2023-02-12T00:22:41.319Z,1.77
2023-02-12T00:25:09.102Z,1.75
2023-02-12T00:27:42.159Z,1.87
2023-02-12T00:30:09.961Z,1.77
2023-02-12T00:32:38.341Z,1.81
2023-02-12T00:35:06.065Z,1.79
2023-02-12T00:37:37.400Z,1.73
2023-02-12T00:40:05.125Z,1.89
2023-02-12T00:42:32.870Z,1.77
2023-02-12T00:45:00.735Z,1.82
2023-02-12T00:47:28.516Z,1.88
2023-02-12T00:49:56.300Z,1.84
2023-02-12T00:52:24.110Z,1.87
2023-02-12T00:54:52.003Z,1.65
2023-02-12T00:57:22.867Z,1.67
2023-02-12T00:59:50.661Z,1.63
2023-02-12T01:02:19.167Z,1.72
2023-02-12T01:04:47.091Z,1.84
2023-02-12T01:07:14.891Z,1.81
2023-02-12T01:09:42.656Z,1.65
2023-02-12T01:12:10.419Z,1.70
2023-02-12T01:14:38.196Z,1.69
2023-02-12T01:17:05.968Z,1.76
2023-02-12T01:19:33.712Z,1.95
2023-02-12T01:22:01.508Z,1.96
2023-02-12T01:24:32.260Z,1.91
2023-02-12T01:27:00.053Z,1.70
2023-02-12T01:29:27.806Z,1.74
2023-02-12T01:31:55.641Z,1.71
2023-02-12T01:34:23.782Z,1.92
2023-02-12T01:36:53.216Z,1.78
2023-02-12T01:39:21.056Z,1.85
2023-02-12T01:41:48.893Z,1.83
2023-02-12T01:44:16.835Z,1.94
2023-02-12T01:46:44.657Z,1.89
2023-02-12T01:49:12.449Z,1.68
2023-02-12T01:51:40.201Z,1.72
2023-02-12T01:54:07.954Z,1.79
2023-02-12T01:56:35.709Z,1.87
2023-02-12T01:59:03.484Z,1.71
2023-02-12T02:01:31.296Z,1.64
2023-02-12T02:03:59.054Z,1.84
2023-02-12T02:06:28.700Z,1.64
2023-02-12T02:08:56.469Z,1.73
2023-02-12T02:11:42.942Z,1.99
2023-02-12T02:14:29.153Z,1.85
2023-02-12T02:16:56.885Z,2.01
2023-02-12T02:19:24.631Z,2.06
2023-02-12T02:21:52.415Z,1.74
2023-02-12T02:24:20.215Z,1.94
2023-02-12T02:26:47.984Z,1.83
2023-02-12T02:29:15.765Z,2.04
2023-02-12T02:31:43.774Z,1.75
2023-02-12T02:34:11.679Z,1.87
2023-02-12T02:36:48.034Z,1.86
2023-02-12T02:39:22.099Z,1.99
2023-02-12T02:41:49.966Z,1.95
2023-02-12T02:44:17.730Z,1.84
2023-02-12T02:46:45.557Z,2.07
2023-02-12T02:49:13.313Z,1.87
2023-02-12T02:51:41.146Z,1.98
2023-02-12T02:54:08.993Z,1.79
2023-02-12T02:56:36.870Z,2.03
2023-02-12T02:59:04.661Z,1.94
2023-02-12T03:01:32.503Z,2.01
2023-02-12T03:04:00.258Z,2.16
2023-02-12T03:06:28.096Z,2.00
2023-02-12T03:08:56.058Z,1.95
2023-02-12T03:11:23.841Z,2.09
2023-02-12T03:13:51.608Z,2.10
2023-02-12T03:16:19.475Z,1.99
2023-02-12T03:18:47.564Z,2.21
2023-02-12T03:21:15.378Z,2.17
2023-02-12T03:23:43.132Z,2.24
2023-02-12T03:26:10.875Z,2.14
2023-02-12T03:28:38.730Z,2.05
2023-02-12T03:31:09.628Z,2.12
2023-02-12T03:33:37.730Z,2.12
2023-02-12T03:36:05.615Z,2.22
2023-02-12T03:38:34.146Z,2.08
2023-02-12T03:41:14.292Z,2.21
2023-02-12T03:43:42.061Z,2.02
2023-02-12T03:46:09.866Z,2.44
2023-02-12T03:48:37.759Z,2.14
2023-02-12T03:51:05.555Z,2.18
2023-02-12T03:53:33.519Z,2.27
2023-02-12T03:56:01.271Z,1.97
2023-02-12T03:58:29.441Z,2.10
2023-02-12T04:00:57.205Z,2.16
2023-02-12T04:03:25.003Z,2.25
2023-02-12T04:05:52.917Z,2.08
2023-02-12T04:08:20.853Z,2.26
2023-02-12T04:10:48.616Z,2.30
2023-02-12T04:13:16.399Z,2.37
2023-02-12T04:15:44.587Z,2.14
2023-02-12T04:18:12.499Z,2.31
2023-02-12T04:20:40.365Z,2.42
2023-02-12T04:23:08.097Z,2.39
2023-02-12T04:25:35.955Z,2.46
2023-02-12T04:28:03.730Z,2.10
2023-02-12T04:30:31.618Z,2.36
2023-02-12T04:33:00.624Z,2.48
2023-02-12T04:35:31.375Z,2.47
2023-02-12T04:37:59.142Z,2.22
2023-02-12T04:40:26.909Z,2.34
2023-02-12T04:42:54.720Z,2.41
2023-02-12T04:45:22.560Z,2.42
2023-02-12T04:47:50.430Z,2.43
2023-02-12T04:50:18.186Z,2.50
2023-02-12T04:52:45.954Z,2.60
2023-02-12T04:55:13.921Z,2.35
2023-02-12T04:57:41.702Z,2.40
2023-02-12T05:00:11.223Z,2.51
2023-02-12T05:02:42.087Z,2.59
2023-02-12T05:05:09.882Z,2.53
2023-02-12T05:07:37.791Z,2.42
2023-02-12T05:10:05.622Z,2.46
2023-02-12T05:12:33.411Z,2.59
2023-02-12T05:15:02.894Z,2.46
2023-02-12T05:17:30.683Z,2.72
2023-02-12T05:19:58.471Z,2.55
2023-02-12T05:22:44.430Z,2.40
2023-02-12T05:25:12.696Z,2.61
2023-02-12T05:27:40.454Z,2.26
2023-02-12T05:30:43.909Z,2.61
2023-02-12T05:33:02.131Z,2.51
2023-02-12T05:35:30.003Z,2.61
2023-02-12T05:37:57.791Z,2.59
2023-02-12T05:40:25.599Z,2.74
2023-02-12T05:42:55.934Z,2.52
2023-02-12T05:45:28.828Z,2.44
2023-02-12T05:48:14.305Z,2.44
2023-02-12T05:50:42.310Z,2.55
2023-02-12T05:53:10.199Z,2.42
2023-02-12T05:55:41.167Z,2.77
2023-02-12T05:58:09.195Z,2.70
2023-02-12T06:00:37.208Z,2.64
2023-02-12T06:03:05.365Z,2.75
2023-02-12T06:05:35.786Z,2.68
2023-02-12T06:08:03.550Z,2.62
2023-02-12T06:10:31.308Z,2.57
2023-02-12T06:12:59.095Z,2.62
2023-02-12T06:15:26.809Z,2.62
2023-02-12T06:17:54.543Z,2.75
2023-02-12T06:20:22.356Z,2.65
2023-02-12T06:22:50.097Z,2.82
2023-02-12T06:25:17.900Z,2.75
2023-02-12T06:27:45.656Z,2.69
2023-02-12T06:30:13.444Z,2.64
2023-02-12T06:32:41.189Z,2.90
2023-02-12T06:35:09.286Z,2.71
2023-02-12T06:37:38.087Z,2.87
2023-02-12T06:40:07.006Z,2.81
2023-02-12T06:42:34.937Z,2.69
2023-02-12T06:45:02.710Z,2.83
2023-02-12T06:47:30.475Z,2.91
2023-02-12T06:49:58.352Z,2.71
2023-02-12T06:52:26.124Z,2.99
2023-02-12T06:54:53.962Z,2.96
2023-02-12T06:57:22.220Z,2.69
2023-02-12T06:59:50.085Z,2.68
2023-02-12T07:02:17.884Z,2.99
2023-02-12T07:04:49.210Z,3.06
2023-02-12T07:07:21.631Z,2.93
2023-02-12T07:09:58.713Z,2.72
2023-02-12T07:12:39.089Z,3.09
2023-02-12T07:15:07.379Z,2.82
2023-02-12T07:17:44.218Z,2.73
2023-02-12T07:20:12.280Z,3.06
2023-02-12T07:22:40.715Z,2.89
2023-02-12T07:25:11.865Z,2.99
2023-02-12T07:27:39.997Z,3.09
2023-02-12T07:30:08.145Z,3.00
2023-02-12T07:32:46.188Z,3.24
2023-02-12T07:35:21.706Z,2.79
2023-02-12T07:37:52.887Z,3.26
2023-02-12T07:40:20.736Z,3.13
2023-02-12T07:42:56.697Z,3.21
2023-02-12T07:45:27.468Z,3.01
2023-02-12T07:47:57.963Z,2.94
2023-02-12T07:50:28.091Z,2.86
2023-02-12T07:53:07.585Z,3.34
2023-02-12T07:55:42.313Z,2.96
2023-02-12T07:58:12.764Z,3.00
2023-02-12T08:00:40.667Z,3.07
2023-02-12T08:03:08.664Z,3.09
2023-02-12T08:05:40.942Z,3.19
2023-02-12T08:08:08.782Z,3.12
2023-02-12T08:10:36.589Z,3.16
2023-02-12T08:13:04.378Z,3.20
2023-02-12T08:15:34.984Z,3.16
2023-02-12T08:18:02.757Z,3.20
2023-02-12T08:20:30.552Z,3.30
2023-02-12T08:22:59.212Z,2.95
2023-02-12T08:25:27.061Z,3.05
2023-02-12T08:27:54.834Z,2.98
2023-02-12T08:30:22.660Z,2.99
2023-02-12T08:32:50.475Z,2.80
2023-02-12T08:35:18.285Z,3.12
2023-02-12T08:37:46.097Z,3.30
2023-02-12T08:40:14.835Z,3.21
2023-02-12T08:42:42.982Z,3.28
2023-02-12T08:45:10.762Z,3.25
2023-02-12T08:47:38.653Z,3.15
2023-02-12T08:50:08.910Z,3.20
2023-02-12T08:52:37.077Z,2.95
2023-02-12T08:55:04.830Z,3.27
2023-02-12T08:57:32.766Z,3.35
2023-02-12T09:00:00.580Z,3.31
2023-02-12T09:02:31.529Z,3.40
2023-02-12T09:04:59.438Z,3.11
2023-02-12T09:07:30.166Z,3.48
2023-02-12T09:09:58.025Z,3.28
2023-02-12T09:12:28.212Z,3.26
2023-02-12T09:14:56.095Z,3.32
2023-02-12T09:17:28.374Z,3.24
2023-02-12T09:19:56.485Z,3.21
2023-02-12T09:22:24.296Z,3.44
2023-02-12T09:24:52.373Z,3.38
2023-02-12T09:27:20.118Z,3.52
2023-02-12T09:29:53.702Z,3.25
2023-02-12T09:32:24.744Z,3.29
2023-02-12T09:34:52.590Z,3.63
2023-02-12T09:37:20.473Z,3.53
2023-02-12T09:39:50.919Z,3.37
2023-02-12T09:42:22.424Z,3.62
2023-02-12T09:44:50.492Z,3.58
2023-02-12T09:47:18.310Z,3.65
2023-02-12T09:49:46.091Z,3.79
2023-02-12T09:52:13.919Z,3.78
2023-02-12T09:54:42.329Z,3.39
2023-02-12T09:57:10.192Z,3.44
2023-02-12T09:59:38.717Z,3.38
2023-02-12T10:02:06.763Z,3.42
2023-02-12T10:04:34.624Z,3.63
2023-02-12T10:07:02.460Z,3.39
2023-02-12T10:09:30.261Z,3.44
2023-02-12T10:11:58.073Z,3.56
2023-02-12T10:14:25.877Z,3.52
2023-02-12T10:16:53.673Z,3.45
2023-02-12T10:19:21.431Z,3.58
2023-02-12T10:21:49.240Z,3.60
2023-02-12T10:24:16.991Z,3.63
2023-02-12T10:26:44.797Z,3.60
2023-02-12T10:29:15.210Z,3.70
2023-02-12T10:31:43.124Z,3.58
2023-02-12T10:34:10.965Z,3.74
2023-02-12T10:36:39.949Z,3.82
2023-02-12T10:39:07.726Z,3.78
2023-02-12T10:41:35.520Z,3.66
2023-02-12T10:44:03.414Z,3.56
2023-02-12T10:46:31.670Z,3.32
2023-02-12T10:48:59.822Z,3.68
2023-02-12T10:51:27.674Z,3.74
2023-02-12T10:53:55.588Z,3.74
2023-02-12T10:56:25.559Z,3.91
2023-02-12T10:58:53.456Z,3.72
2023-02-12T11:01:21.240Z,3.94
2023-02-12T11:03:49.093Z,3.54
2023-02-12T11:06:16.877Z,3.85
2023-02-12T11:08:45.291Z,3.77
2023-02-12T11:11:13.169Z,3.82
2023-02-12T11:13:41.042Z,3.88
2023-02-12T11:16:08.908Z,3.98
2023-02-12T11:18:38.313Z,3.71
2023-02-12T11:21:06.139Z,3.77
2023-02-12T11:23:33.913Z,3.51
2023-02-12T11:26:01.809Z,3.86
2023-02-12T11:28:29.699Z,3.92
2023-02-12T11:30:57.642Z,3.88
2023-02-12T11:33:25.614Z,4.00
2023-02-12T11:35:53.553Z,3.84
2023-02-12T11:38:24.663Z,3.78
2023-02-12T11:40:52.541Z,3.83
2023-02-12T11:43:23.102Z,3.71
2023-02-12T11:45:51.556Z,3.81
2023-02-12T11:48:20.266Z,3.82
2023-02-12T11:50:48.206Z,3.65
2023-02-12T11:53:16.199Z,3.95
2023-02-12T11:55:43.932Z,3.81
2023-02-12T11:58:11.733Z,3.68
2023-02-12T12:00:39.756Z,3.47
2023-02-12T12:03:11.245Z,3.70
2023-02-12T12:05:39.122Z,3.70
2023-02-12T12:08:06.879Z,3.90
2023-02-12T12:10:34.668Z,3.94
2023-02-12T12:13:02.449Z,3.89
2023-02-12T12:15:48.721Z,3.58
2023-02-12T12:18:34.737Z,3.88
2023-02-12T12:21:02.487Z,3.73
2023-02-12T12:23:30.250Z,3.62
2023-02-12T12:25:58.227Z,3.77
2023-02-12T12:28:27.662Z,3.77
2023-02-12T12:30:55.514Z,3.73
2023-02-12T12:33:23.283Z,3.79
2023-02-12T12:35:51.024Z,3.62
2023-02-12T12:38:20.727Z,3.46
2023-02-12T12:40:48.496Z,3.78
2023-02-12T12:43:16.287Z,3.53
2023-02-12T12:45:44.217Z,3.73
2023-02-12T12:48:12.057Z,3.35
2023-02-12T12:50:39.804Z,3.81
2023-02-12T12:53:07.577Z,3.73
2023-02-12T12:55:35.353Z,3.77
2023-02-12T12:58:03.125Z,3.48
2023-02-12T13:00:30.861Z,3.63
2023-02-12T13:02:58.626Z,3.58
2023-02-12T13:05:26.449Z,3.49
2023-02-12T13:07:54.942Z,3.81
2023-02-12T13:10:22.728Z,3.54
2023-02-12T13:12:50.501Z,3.89
2023-02-12T13:15:18.540Z,3.41
2023-02-12T13:17:47.045Z,3.62
2023-02-12T13:20:14.824Z,3.73
2023-02-12T13:22:42.651Z,3.52
2023-02-12T13:25:10.425Z,3.46
2023-02-12T13:27:38.269Z,3.49
2023-02-12T13:30:06.026Z,3.35
2023-02-12T13:32:33.828Z,3.48
2023-02-12T13:35:01.574Z,3.34
2023-02-12T13:37:29.330Z,3.45
2023-02-12T13:39:57.093Z,3.66
2023-02-12T13:42:24.882Z,3.41
2023-02-12T13:44:53.549Z,3.63
2023-02-12T13:47:23.697Z,3.30
2023-02-12T13:49:51.559Z,3.54
2023-02-12T13:52:19.415Z,3.58
2023-02-12T13:54:47.237Z,3.53
2023-02-12T13:57:15.023Z,3.44
2023-02-12T13:59:42.831Z,3.40
2023-02-12T14:02:10.603Z,3.20
2023-02-12T14:04:38.711Z,3.57
2023-02-12T14:07:07.633Z,3.24
2023-02-12T14:09:36.955Z,3.29
2023-02-12T14:12:04.701Z,3.39
2023-02-12T14:14:32.448Z,3.37
2023-02-12T14:17:00.314Z,3.32
2023-02-12T14:19:28.137Z,3.45
2023-02-12T14:21:55.954Z,3.37
2023-02-12T14:24:23.759Z,3.40
2023-02-12T14:26:51.499Z,3.17
2023-02-12T14:29:19.276Z,3.24
2023-02-12T14:31:47.202Z,3.36
2023-02-12T14:34:17.099Z,3.27
2023-02-12T14:36:44.970Z,3.32
2023-02-12T14:39:12.855Z,3.22
2023-02-12T14:41:42.666Z,3.35
2023-02-12T14:44:11.849Z,3.44
2023-02-12T14:46:39.744Z,3.03
2023-02-12T14:49:07.611Z,3.67
2023-02-12T14:51:35.361Z,3.40
2023-02-12T14:54:03.178Z,3.31
2023-02-12T14:56:30.916Z,3.47
2023-02-12T14:58:58.676Z,3.40
2023-02-12T15:01:26.526Z,3.26
2023-02-12T15:03:54.325Z,3.26
2023-02-12T15:06:22.129Z,3.54
2023-02-12T15:08:50.092Z,3.16
2023-02-12T15:11:17.880Z,3.20
2023-02-12T15:13:45.688Z,3.12
2023-02-12T15:16:13.544Z,3.03
2023-02-12T15:18:41.311Z,3.26
2023-02-12T15:21:09.112Z,3.15
2023-02-12T15:23:36.918Z,3.46
2023-02-12T15:26:04.661Z,3.23
2023-02-12T15:28:34.500Z,3.33
2023-02-12T15:31:03.146Z,3.27
2023-02-12T15:33:31.139Z,3.14
2023-02-12T15:35:59.178Z,3.42
2023-02-12T15:38:27.095Z,3.14
2023-02-12T15:40:54.917Z,3.16
2023-02-12T15:43:22.684Z,3.17
2023-02-12T15:45:50.496Z,3.10
2023-02-12T15:48:18.265Z,3.17
2023-02-12T15:50:46.010Z,3.28
2023-02-12T15:53:13.820Z,3.23
2023-02-12T15:55:41.576Z,3.20
2023-02-12T15:58:09.343Z,3.12
2023-02-12T16:00:37.225Z,3.13
2023-02-12T16:03:05.666Z,3.27
2023-02-12T16:05:35.146Z,3.43
2023-02-12T16:08:03.358Z,3.26
2023-02-12T16:10:31.116Z,3.31
2023-02-12T16:12:58.921Z,3.34
2023-02-12T16:15:26.704Z,3.25
2023-02-12T16:17:54.506Z,3.16
2023-02-12T16:20:22.715Z,3.34
2023-02-12T16:22:50.576Z,3.36
2023-02-12T16:25:18.376Z,3.19
2023-02-12T16:27:46.116Z,3.22
2023-02-12T16:30:14.005Z,3.28
2023-02-12T16:32:41.891Z,3.15
2023-02-12T16:35:09.652Z,3.28
2023-02-12T16:37:37.456Z,3.20
2023-02-12T16:40:05.470Z,3.12
2023-02-12T16:42:33.268Z,3.00
2023-02-12T16:45:01.082Z,3.19
2023-02-12T16:47:28.920Z,3.09
2023-02-12T16:49:56.721Z,3.12
2023-02-12T16:52:24.566Z,3.05
2023-02-12T16:54:52.320Z,3.12
2023-02-12T16:57:20.064Z,2.90
2023-02-12T16:59:47.825Z,3.07
2023-02-12T17:02:15.655Z,3.07
2023-02-12T17:04:43.426Z,2.99
2023-02-12T17:07:11.219Z,3.00
2023-02-12T17:09:39.034Z,3.03
2023-02-12T17:12:06.994Z,3.08
2023-02-12T17:14:34.825Z,2.95
2023-02-12T17:17:05.760Z,3.10
2023-02-12T17:19:33.539Z,3.13
2023-02-12T17:22:01.282Z,2.97
2023-02-12T17:24:29.263Z,3.11
2023-02-12T17:26:57.051Z,3.27
2023-02-12T17:29:24.803Z,2.92
2023-02-12T17:31:56.787Z,2.83
2023-02-12T17:34:24.588Z,2.95
2023-02-12T17:36:52.374Z,3.18
2023-02-12T17:39:20.108Z,2.95
2023-02-12T17:41:48.120Z,3.06
2023-02-12T17:44:16.609Z,3.04
2023-02-12T17:46:44.434Z,3.04
2023-02-12T17:49:12.225Z,3.04
2023-02-12T17:51:40.038Z,2.74
2023-02-12T17:54:10.600Z,2.95
2023-02-12T17:56:38.348Z,3.05
2023-02-12T17:59:06.135Z,2.78
2023-02-12T18:01:35.510Z,2.77
2023-02-12T18:04:03.427Z,2.97
2023-02-12T18:06:32.914Z,3.20
2023-02-12T18:09:02.574Z,3.15
2023-02-12T18:11:30.772Z,2.80
2023-02-12T18:13:58.695Z,2.96
2023-02-12T18:16:26.431Z,2.88
2023-02-12T18:18:54.383Z,2.75
2023-02-12T18:21:22.128Z,2.86
2023-02-12T18:23:49.971Z,2.74
2023-02-12T18:26:17.737Z,2.96
2023-02-12T18:28:45.590Z,3.20
2023-02-12T18:31:13.543Z,2.80
2023-02-12T18:33:41.421Z,3.04
2023-02-12T18:36:09.266Z,2.93
2023-02-12T18:38:37.099Z,3.02
2023-02-12T18:41:05.037Z,2.95
2023-02-12T18:43:34.933Z,2.88
2023-02-12T18:46:02.686Z,2.77
2023-02-12T18:48:30.440Z,2.97
2023-02-12T18:50:58.567Z,2.89
2023-02-12T18:53:26.628Z,2.99
2023-02-12T18:55:54.472Z,3.13
2023-02-12T18:58:22.237Z,3.07
2023-02-12T19:00:49.988Z,2.95
2023-02-12T19:03:17.749Z,2.67
2023-02-12T19:05:45.599Z,2.78
2023-02-12T19:08:13.489Z,2.94
2023-02-12T19:10:41.294Z,2.96
2023-02-12T19:13:09.109Z,2.75
2023-02-12T19:15:36.918Z,3.02
2023-02-12T19:18:04.717Z,3.00
2023-02-12T19:20:33.232Z,2.76
2023-02-12T19:23:01.062Z,3.04
2023-02-12T19:25:28.795Z,2.75
2023-02-12T19:27:56.633Z,2.98
2023-02-12T19:30:24.426Z,2.93
2023-02-12T19:32:52.170Z,2.73
2023-02-12T19:35:19.959Z,3.05
2023-02-12T19:37:47.688Z,2.71
2023-02-12T19:40:15.436Z,2.79
2023-02-12T19:42:43.180Z,2.73
2023-02-12T19:45:10.906Z,2.81
2023-02-12T19:47:38.674Z,2.73
2023-02-12T19:50:06.399Z,2.71
2023-02-12T19:52:34.265Z,2.86
2023-02-12T19:55:02.061Z,2.82
2023-02-12T19:57:29.856Z,2.87
2023-02-12T19:59:57.563Z,2.73
2023-02-12T20:02:25.420Z,2.78
2023-02-12T20:04:53.224Z,2.71
2023-02-12T20:07:20.985Z,2.81
2023-02-12T20:09:48.735Z,2.85
2023-02-12T20:12:16.533Z,2.69
2023-02-12T20:14:44.295Z,2.91
2023-02-12T20:17:12.032Z,2.79
2023-02-12T20:19:39.782Z,2.70
2023-02-12T20:22:07.531Z,2.71
2023-02-12T20:24:35.362Z,2.74
2023-02-12T20:27:03.185Z,2.69
2023-02-12T20:29:31.026Z,2.53
2023-02-12T20:31:58.904Z,2.82
2023-02-12T20:34:26.766Z,2.66
2023-02-12T20:36:55.188Z,2.69
2023-02-12T20:39:22.970Z,2.72
2023-02-12T20:41:50.975Z,2.65
2023-02-12T20:44:18.775Z,2.58
2023-02-12T20:46:46.521Z,2.59
2023-02-12T20:49:14.317Z,2.46
2023-02-12T20:51:42.118Z,2.47
2023-02-12T20:54:09.921Z,2.49
2023-02-12T20:56:37.740Z,2.58
2023-02-12T20:59:05.505Z,2.55
2023-02-12T21:01:33.926Z,2.68
2023-02-12T21:04:01.705Z,2.70
2023-02-12T21:06:29.437Z,2.71
2023-02-12T21:08:57.209Z,2.61
2023-02-12T21:11:25.030Z,2.66
2023-02-12T21:13:58.735Z,2.72
2023-02-12T21:16:30.224Z,2.57
2023-02-12T21:18:58.059Z,2.57
2023-02-12T21:21:25.797Z,2.71
2023-02-12T21:23:54.914Z,2.54
2023-02-12T21:26:23.670Z,2.76
2023-02-12T21:28:51.478Z,2.59
2023-02-12T21:31:19.339Z,2.60
2023-02-12T21:33:47.149Z,2.58
2023-02-12T21:36:14.996Z,2.62
2023-02-12T21:38:42.731Z,2.56
2023-02-12T21:41:10.525Z,2.33
2023-02-12T21:43:38.276Z,2.40
2023-02-12T21:46:06.056Z,2.56
2023-02-12T21:48:33.880Z,2.47
2023-02-12T21:51:01.658Z,2.20
2023-02-12T21:53:29.434Z,2.51
2023-02-12T21:55:57.490Z,2.57
2023-02-12T21:58:25.534Z,2.57
2023-02-12T22:00:53.405Z,2.42
2023-02-12T22:03:21.296Z,2.53
2023-02-12T22:05:49.014Z,2.20
2023-02-12T22:08:16.771Z,2.43
2023-02-12T22:10:44.516Z,2.55
2023-02-12T22:13:12.270Z,2.25
2023-02-12T22:15:40.099Z,2.57
2023-02-12T22:18:07.863Z,2.48
2023-02-12T22:20:35.628Z,2.51
2023-02-12T22:23:03.376Z,2.40
2023-02-12T22:25:31.143Z,2.30
2023-02-12T22:27:59.016Z,2.43
2023-02-12T22:30:26.853Z,2.52
2023-02-12T22:32:54.581Z,2.40
2023-02-12T22:35:22.323Z,2.31
2023-02-12T22:37:50.070Z,2.45
2023-02-12T22:40:17.794Z,2.32
2023-02-12T22:42:45.751Z,2.40
2023-02-12T22:45:13.497Z,2.35
2023-02-12T22:47:41.273Z,2.33
2023-02-12T22:50:09.020Z,2.55
2023-02-12T22:52:36.837Z,2.34
2023-02-12T22:55:04.646Z,2.41
2023-02-12T22:57:32.347Z,2.42
2023-02-12T23:00:00.184Z,2.35
2023-02-12T23:02:27.993Z,2.46
2023-02-12T23:04:55.774Z,2.47
2023-02-12T23:07:23.554Z,2.37
2023-02-12T23:09:51.271Z,2.36
2023-02-12T23:12:19.036Z,2.55
2023-02-12T23:14:46.796Z,2.43
2023-02-12T23:17:14.592Z,2.52
2023-02-12T23:19:42.344Z,2.53
2023-02-12T23:22:10.189Z,2.46
2023-02-12T23:24:40.730Z,2.35
2023-02-12T23:27:08.458Z,2.44
2023-02-12T23:29:36.898Z,2.43
2023-02-12T23:32:04.655Z,2.30
2023-02-12T23:34:32.428Z,2.44
2023-02-12T23:37:00.251Z,2.38
2023-02-12T23:39:27.971Z,2.50
2023-02-12T23:41:55.740Z,2.38
2023-02-12T23:44:23.532Z,2.15
2023-02-12T23:46:53.022Z,2.34
2023-02-12T23:49:20.753Z,2.60
2023-02-12T23:51:48.599Z,2.36
2023-02-12T23:54:16.383Z,2.26
2023-02-12T23:56:44.112Z,2.35
2023-02-12T23:59:11.921Z,2.49
